sensor_id;sensor_type;location;lat;lon;timestamp;temperature;humidity
18894;DHT22;9579;49.488;8.226;2022-10-16T06:10:19;17.80;99.90
18894;DHT22;9579;49.488;8.226;2022-10-16T06:13:23;17.80;99.90
18894;DHT22;9579;49.488;8.226;2022-10-16T06:16:11;17.80;99.90
18894;DHT22;9579;49.488;8.226;2022-10-16T06:18:58;17.70;99.90
18894;DHT22;9579;49.488;8.226;2022-10-16T06:21:46;17.80;99.90
18894;DHT22;9579;49.488;8.226;2022-10-16T06:24:33;17.70;99.90
18894;DHT22;9579;49.488;8.226;2022-10-16T06:27:22;17.70;99.90
18894;DHT22;9579;49.488;8.226;2022-10-16T06:30:10;17.90;99.90
18894;DHT22;9579;49.488;8.226;2022-10-16T06:32:57;17.80;99.90
18894;DHT22;9579;49.488;8.226;2022-10-16T06:35:44;17.80;99.90
18894;DHT22;9579;49.488;8.226;2022-10-16T06:38:31;17.90;99.90
18894;DHT22;9579;49.488;8.226;2022-10-16T06:41:20;17.90;99.90
18894;DHT22;9579;49.488;8.226;2022-10-16T06:44:08;18.00;99.90
18894;DHT22;9579;49.488;8.226;2022-10-16T06:46:55;18.00;99.90
18894;DHT22;9579;49.488;8.226;2022-10-16T06:49:42;18.00;99.90
18894;DHT22;9579;49.488;8.226;2022-10-16T06:52:30;18.00;99.90
18894;DHT22;9579;49.488;8.226;2022-10-16T06:55:17;18.00;99.90
18894;DHT22;9579;49.488;8.226;2022-10-16T06:58:04;18.00;99.90
18894;DHT22;9579;49.488;8.226;2022-10-16T07:00:56;18.00;99.90
18894;DHT22;9579;49.488;8.226;2022-10-16T07:03:44;18.00;99.90
18894;DHT22;9579;49.488;8.226;2022-10-16T07:06:33;18.00;99.90
18894;DHT22;9579;49.488;8.226;2022-10-16T07:09:20;18.00;99.90
18894;DHT22;9579;49.488;8.226;2022-10-16T07:12:07;18.10;99.90
18894;DHT22;9579;49.488;8.226;2022-10-16T07:14:54;18.20;99.90
18894;DHT22;9579;49.488;8.226;2022-10-16T07:17:43;18.20;99.90
18894;DHT22;9579;49.488;8.226;2022-10-16T07:20:30;18.20;99.90
18894;DHT22;9579;49.488;8.226;2022-10-16T07:23:17;18.30;99.90
18894;DHT22;9579;49.488;8.226;2022-10-16T07:26:05;18.20;99.90
18894;DHT22;9579;49.488;8.226;2022-10-16T07:28:52;18.30;99.90
18894;DHT22;9579;49.488;8.226;2022-10-16T07:31:40;18.30;99.90
18894;DHT22;9579;49.488;8.226;2022-10-16T07:34:28;18.30;99.90
18894;DHT22;9579;49.488;8.226;2022-10-16T07:37:15;18.20;99.90
18894;DHT22;9579;49.488;8.226;2022-10-16T07:40:03;18.20;99.90
18894;DHT22;9579;49.488;8.226;2022-10-16T07:42:51;18.20;99.90
18894;DHT22;9579;49.488;8.226;2022-10-16T07:45:46;18.30;99.90
18894;DHT22;9579;49.488;8.226;2022-10-16T07:48:34;18.20;99.90
18894;DHT22;9579;49.488;8.226;2022-10-16T07:51:24;18.30;99.90
18894;DHT22;9579;49.488;8.226;2022-10-16T07:54:12;18.40;99.90
18894;DHT22;9579;49.488;8.226;2022-10-16T07:56:59;18.50;99.90
18894;DHT22;9579;49.488;8.226;2022-10-16T07:59:46;18.60;99.90
18894;DHT22;9579;49.488;8.226;2022-10-16T08:02:33;18.50;99.90
18894;DHT22;9579;49.488;8.226;2022-10-16T08:05:20;18.40;99.90
18894;DHT22;9579;49.488;8.226;2022-10-16T08:08:14;18.50;99.90
18894;DHT22;9579;49.488;8.226;2022-10-16T08:11:01;18.40;99.90
18894;DHT22;9579;49.488;8.226;2022-10-16T08:13:49;18.40;99.90
18894;DHT22;9579;49.488;8.226;2022-10-16T08:16:36;18.30;99.90
18894;DHT22;9579;49.488;8.226;2022-10-16T08:19:23;18.50;99.90
18894;DHT22;9579;49.488;8.226;2022-10-16T08:22:11;18.30;99.90
18894;DHT22;9579;49.488;8.226;2022-10-16T08:24:59;18.30;99.90
18894;DHT22;9579;49.488;8.226;2022-10-16T08:27:46;18.30;99.90
18894;DHT22;9579;49.488;8.226;2022-10-16T08:30:34;18.30;99.90
18894;DHT22;9579;49.488;8.226;2022-10-16T08:33:21;18.20;99.90
18894;DHT22;9579;49.488;8.226;2022-10-16T08:36:10;18.20;99.90
18894;DHT22;9579;49.488;8.226;2022-10-16T08:38:57;18.00;99.90
18894;DHT22;9579;49.488;8.226;2022-10-16T08:42:01;18.00;99.90
18894;DHT22;9579;49.488;8.226;2022-10-16T08:48:17;18.00;99.90
18894;DHT22;9579;49.488;8.226;2022-10-16T08:51:08;18.00;99.90
18894;DHT22;9579;49.488;8.226;2022-10-16T08:54:01;18.00;99.90
18894;DHT22;9579;49.488;8.226;2022-10-16T08:56:48;18.20;99.90
18894;DHT22;9579;49.488;8.226;2022-10-16T08:59:37;18.50;99.90
18894;DHT22;9579;49.488;8.226;2022-10-16T09:02:28;18.70;99.90
18894;DHT22;9579;49.488;8.226;2022-10-16T09:08:32;18.90;99.90
18894;DHT22;9579;49.488;8.226;2022-10-16T09:11:26;19.00;99.90
18894;DHT22;9579;49.488;8.226;2022-10-16T09:14:45;19.20;99.90
18894;DHT22;9579;49.488;8.226;2022-10-16T09:17:41;19.30;99.90
18894;DHT22;9579;49.488;8.226;2022-10-16T09:20:34;19.30;99.90
18894;DHT22;9579;49.488;8.226;2022-10-16T09:23:27;19.40;99.90
18894;DHT22;9579;49.488;8.226;2022-10-16T09:26:15;19.60;99.90
18894;DHT22;9579;49.488;8.226;2022-10-16T09:29:03;19.80;99.90
18894;DHT22;9579;49.488;8.226;2022-10-16T09:31:53;19.90;99.90
18894;DHT22;9579;49.488;8.226;2022-10-16T09:34:43;20.10;99.90
18894;DHT22;9579;49.488;8.226;2022-10-16T09:37:32;20.30;99.90
18894;DHT22;9579;49.488;8.226;2022-10-16T09:40:26;20.10;99.90
18894;DHT22;9579;49.488;8.226;2022-10-16T09:43:22;20.10;99.90
18894;DHT22;9579;49.488;8.226;2022-10-16T09:46:22;20.30;99.90
18894;DHT22;9579;49.488;8.226;2022-10-16T09:49:21;20.40;99.90
18894;DHT22;9579;49.488;8.226;2022-10-16T09:52:12;20.60;99.90
18894;DHT22;9579;49.488;8.226;2022-10-16T09:55:01;20.60;99.90
18894;DHT22;9579;49.488;8.226;2022-10-16T09:57:49;20.60;99.90
18894;DHT22;9579;49.488;8.226;2022-10-16T10:00:37;20.70;99.90
18894;DHT22;9579;49.488;8.226;2022-10-16T10:03:35;20.70;99.90
18894;DHT22;9579;49.488;8.226;2022-10-16T10:06:27;20.60;99.90
18894;DHT22;9579;49.488;8.226;2022-10-16T10:09:18;20.90;99.90
18894;DHT22;9579;49.488;8.226;2022-10-16T10:12:17;21.30;99.90
18894;DHT22;9579;49.488;8.226;2022-10-16T10:15:07;21.70;99.90
18894;DHT22;9579;49.488;8.226;2022-10-16T10:17:57;22.00;99.90
18894;DHT22;9579;49.488;8.226;2022-10-16T10:20:44;22.10;99.90
18894;DHT22;9579;49.488;8.226;2022-10-16T10:23:33;22.20;99.90
18894;DHT22;9579;49.488;8.226;2022-10-16T10:26:24;21.90;99.90
18894;DHT22;9579;49.488;8.226;2022-10-16T10:29:20;21.70;99.90
18894;DHT22;9579;49.488;8.226;2022-10-16T10:32:21;21.50;99.90
18894;DHT22;9579;49.488;8.226;2022-10-16T10:35:15;21.50;99.90
18894;DHT22;9579;49.488;8.226;2022-10-16T10:38:11;21.40;99.90
18894;DHT22;9579;49.488;8.226;2022-10-16T10:41:19;21.30;99.90
18894;DHT22;9579;49.488;8.226;2022-10-16T10:44:16;21.40;99.90
18894;DHT22;9579;49.488;8.226;2022-10-16T10:47:12;21.30;99.90
18894;DHT22;9579;49.488;8.226;2022-10-16T10:50:10;21.40;99.90
18894;DHT22;9579;49.488;8.226;2022-10-16T10:53:06;21.50;99.90
18894;DHT22;9579;49.488;8.226;2022-10-16T10:56:04;21.60;99.90
18894;DHT22;9579;49.488;8.226;2022-10-16T10:59:21;21.70;99.90
18894;DHT22;9579;49.488;8.226;2022-10-16T11:02:19;22.10;99.90
18894;DHT22;9579;49.488;8.226;2022-10-16T11:05:25;22.40;99.90
18894;DHT22;9579;49.488;8.226;2022-10-16T11:08:18;22.60;99.90
18894;DHT22;9579;49.488;8.226;2022-10-16T11:11:13;22.80;99.90
18894;DHT22;9579;49.488;8.226;2022-10-16T11:14:06;23.10;99.90
18894;DHT22;9579;49.488;8.226;2022-10-16T11:17:02;22.90;99.90
18894;DHT22;9579;49.488;8.226;2022-10-16T11:19:53;23.10;99.90
18894;DHT22;9579;49.488;8.226;2022-10-16T11:22:43;23.20;99.90
18894;DHT22;9579;49.488;8.226;2022-10-16T11:25:33;23.20;99.90
18894;DHT22;9579;49.488;8.226;2022-10-16T11:28:23;23.30;99.90
18894;DHT22;9579;49.488;8.226;2022-10-16T11:31:17;23.30;99.90
18894;DHT22;9579;49.488;8.226;2022-10-16T11:34:13;23.40;99.90
18894;DHT22;9579;49.488;8.226;2022-10-16T11:37:08;23.40;99.90
18894;DHT22;9579;49.488;8.226;2022-10-16T11:40:02;23.30;99.90
18894;DHT22;9579;49.488;8.226;2022-10-16T11:42:54;23.30;99.90
18894;DHT22;9579;49.488;8.226;2022-10-16T11:45:44;23.20;99.90
18894;DHT22;9579;49.488;8.226;2022-10-16T11:48:38;23.30;99.90
18894;DHT22;9579;49.488;8.226;2022-10-16T11:51:33;23.30;99.90
18894;DHT22;9579;49.488;8.226;2022-10-16T11:54:26;23.20;99.90
18894;DHT22;9579;49.488;8.226;2022-10-16T11:57:19;23.30;99.90
18894;DHT22;9579;49.488;8.226;2022-10-16T12:00:10;23.40;99.90
18894;DHT22;9579;49.488;8.226;2022-10-16T12:03:11;23.40;99.90
18894;DHT22;9579;49.488;8.226;2022-10-16T12:06:14;23.30;99.90
18894;DHT22;9579;49.488;8.226;2022-10-16T12:09:15;23.40;99.90
18894;DHT22;9579;49.488;8.226;2022-10-16T12:12:03;23.40;99.90
18894;DHT22;9579;49.488;8.226;2022-10-16T12:14:59;23.30;99.90
18894;DHT22;9579;49.488;8.226;2022-10-16T12:17:47;23.30;99.90
18894;DHT22;9579;49.488;8.226;2022-10-16T12:20:34;23.20;99.90
18894;DHT22;9579;49.488;8.226;2022-10-16T12:23:23;23.20;99.90
18894;DHT22;9579;49.488;8.226;2022-10-16T12:26:12;23.10;99.90
18894;DHT22;9579;49.488;8.226;2022-10-16T12:29:13;23.10;99.90
18894;DHT22;9579;49.488;8.226;2022-10-16T12:32:02;23.10;99.90
18894;DHT22;9579;49.488;8.226;2022-10-16T12:34:50;23.30;99.90
18894;DHT22;9579;49.488;8.226;2022-10-16T12:37:38;23.30;99.90
18894;DHT22;9579;49.488;8.226;2022-10-16T12:40:27;23.30;99.90
18894;DHT22;9579;49.488;8.226;2022-10-16T12:43:27;23.60;99.90
18894;DHT22;9579;49.488;8.226;2022-10-16T12:46:37;23.80;99.90
18894;DHT22;9579;49.488;8.226;2022-10-16T12:49:31;23.60;99.90
18894;DHT22;9579;49.488;8.226;2022-10-16T12:52:35;23.50;99.90
18894;DHT22;9579;49.488;8.226;2022-10-16T12:55:24;23.40;99.90
18894;DHT22;9579;49.488;8.226;2022-10-16T12:58:27;23.10;99.90
18894;DHT22;9579;49.488;8.226;2022-10-16T13:01:31;23.20;99.90
18894;DHT22;9579;49.488;8.226;2022-10-16T13:04:40;23.20;99.90
18894;DHT22;9579;49.488;8.226;2022-10-16T13:07:47;23.10;99.90
18894;DHT22;9579;49.488;8.226;2022-10-16T13:10:40;22.90;99.90
18894;DHT22;9579;49.488;8.226;2022-10-16T13:13:45;22.80;99.90
18894;DHT22;9579;49.488;8.226;2022-10-16T13:16:46;22.80;99.90
18894;DHT22;9579;49.488;8.226;2022-10-16T13:19:44;22.80;99.90
18894;DHT22;9579;49.488;8.226;2022-10-16T13:22:35;22.60;99.90
18894;DHT22;9579;49.488;8.226;2022-10-16T13:25:35;22.60;99.90
18894;DHT22;9579;49.488;8.226;2022-10-16T13:28:28;22.50;99.90
18894;DHT22;9579;49.488;8.226;2022-10-16T13:31:20;22.50;99.90
18894;DHT22;9579;49.488;8.226;2022-10-16T13:34:13;22.40;99.90
18894;DHT22;9579;49.488;8.226;2022-10-16T13:37:01;22.40;99.90
18894;DHT22;9579;49.488;8.226;2022-10-16T13:39:48;22.40;99.90
18894;DHT22;9579;49.488;8.226;2022-10-16T13:42:36;22.30;99.90
18894;DHT22;9579;49.488;8.226;2022-10-16T13:45:25;22.30;99.90
18894;DHT22;9579;49.488;8.226;2022-10-16T13:48:13;22.30;99.90
18894;DHT22;9579;49.488;8.226;2022-10-16T13:51:03;22.20;99.90
18894;DHT22;9579;49.488;8.226;2022-10-16T13:53:50;22.20;99.90
18894;DHT22;9579;49.488;8.226;2022-10-16T13:56:39;22.10;99.90
18894;DHT22;9579;49.488;8.226;2022-10-16T13:59:33;22.10;99.90
18894;DHT22;9579;49.488;8.226;2022-10-16T14:02:25;22.00;99.90
18894;DHT22;9579;49.488;8.226;2022-10-16T14:05:15;22.00;99.90
18894;DHT22;9579;49.488;8.226;2022-10-16T14:08:02;22.00;99.90
18894;DHT22;9579;49.488;8.226;2022-10-16T14:10:50;21.90;99.90
18894;DHT22;9579;49.488;8.226;2022-10-16T14:13:39;21.90;99.90
18894;DHT22;9579;49.488;8.226;2022-10-16T14:16:31;21.90;99.90
18894;DHT22;9579;49.488;8.226;2022-10-16T14:19:22;22.00;99.90
18894;DHT22;9579;49.488;8.226;2022-10-16T14:22:27;21.80;99.90
18894;DHT22;9579;49.488;8.226;2022-10-16T14:25:24;21.70;99.90
18894;DHT22;9579;49.488;8.226;2022-10-16T14:28:16;21.80;99.90
18894;DHT22;9579;49.488;8.226;2022-10-16T14:31:26;21.70;99.90
18894;DHT22;9579;49.488;8.226;2022-10-16T14:34:25;21.70;99.90
18894;DHT22;9579;49.488;8.226;2022-10-16T14:37:24;21.70;99.90
18894;DHT22;9579;49.488;8.226;2022-10-16T14:40:14;21.70;99.90
18894;DHT22;9579;49.488;8.226;2022-10-16T14:43:03;21.70;99.90
18894;DHT22;9579;49.488;8.226;2022-10-16T14:45:52;21.80;99.90
18894;DHT22;9579;49.488;8.226;2022-10-16T14:48:41;21.80;99.90
18894;DHT22;9579;49.488;8.226;2022-10-16T14:51:29;21.90;99.90
18894;DHT22;9579;49.488;8.226;2022-10-16T14:54:18;22.00;99.90
18894;DHT22;9579;49.488;8.226;2022-10-16T14:57:16;22.00;99.90
18894;DHT22;9579;49.488;8.226;2022-10-16T15:00:08;22.10;99.90
18894;DHT22;9579;49.488;8.226;2022-10-16T15:02:56;22.10;99.90
18894;DHT22;9579;49.488;8.226;2022-10-16T15:05:44;22.20;99.90
18894;DHT22;9579;49.488;8.226;2022-10-16T15:08:31;22.30;99.90
18894;DHT22;9579;49.488;8.226;2022-10-16T15:11:19;22.30;99.90
18894;DHT22;9579;49.488;8.226;2022-10-16T15:14:09;22.50;99.90
18894;DHT22;9579;49.488;8.226;2022-10-16T15:16:57;22.50;99.90
18894;DHT22;9579;49.488;8.226;2022-10-16T15:19:44;22.60;99.90
18894;DHT22;9579;49.488;8.226;2022-10-16T15:22:31;22.60;99.90
18894;DHT22;9579;49.488;8.226;2022-10-16T15:25:29;22.60;99.90
18894;DHT22;9579;49.488;8.226;2022-10-16T15:28:19;22.50;99.90
18894;DHT22;9579;49.488;8.226;2022-10-16T15:31:06;22.50;99.90
18894;DHT22;9579;49.488;8.226;2022-10-16T15:33:54;22.40;99.90
18894;DHT22;9579;49.488;8.226;2022-10-16T15:36:43;22.50;99.90
18894;DHT22;9579;49.488;8.226;2022-10-16T15:39:30;22.30;99.90
18894;DHT22;9579;49.488;8.226;2022-10-16T15:42:17;22.20;99.90
18894;DHT22;9579;49.488;8.226;2022-10-16T15:45:08;22.20;99.90
18894;DHT22;9579;49.488;8.226;2022-10-16T15:47:55;22.20;99.90
18894;DHT22;9579;49.488;8.226;2022-10-16T15:50:42;22.10;99.90
18894;DHT22;9579;49.488;8.226;2022-10-16T15:53:29;22.10;99.90
18894;DHT22;9579;49.488;8.226;2022-10-16T15:56:16;22.00;99.90
18894;DHT22;9579;49.488;8.226;2022-10-16T15:59:04;21.80;99.90
18894;DHT22;9579;49.488;8.226;2022-10-16T16:01:53;21.70;99.90
18894;DHT22;9579;49.488;8.226;2022-10-16T16:04:40;21.60;99.90
18894;DHT22;9579;49.488;8.226;2022-10-16T16:07:27;21.50;99.90
18894;DHT22;9579;49.488;8.226;2022-10-16T16:10:15;21.40;99.90
18894;DHT22;9579;49.488;8.226;2022-10-16T16:13:02;21.40;99.90
18894;DHT22;9579;49.488;8.226;2022-10-16T16:15:49;21.30;99.90
18894;DHT22;9579;49.488;8.226;2022-10-16T16:18:39;21.20;99.90
18894;DHT22;9579;49.488;8.226;2022-10-16T16:21:26;21.10;99.90
18894;DHT22;9579;49.488;8.226;2022-10-16T16:24:13;21.10;99.90
18894;DHT22;9579;49.488;8.226;2022-10-16T16:27:00;21.10;99.90
18894;DHT22;9579;49.488;8.226;2022-10-16T16:29:47;21.00;99.90
18894;DHT22;9579;49.488;8.226;2022-10-16T16:32:34;21.00;99.90
18894;DHT22;9579;49.488;8.226;2022-10-16T16:35:23;20.90;99.90
18894;DHT22;9579;49.488;8.226;2022-10-16T16:38:10;20.80;99.90
18894;DHT22;9579;49.488;8.226;2022-10-16T16:40:57;20.90;99.90
18894;DHT22;9579;49.488;8.226;2022-10-16T16:43:44;20.70;99.90
18894;DHT22;9579;49.488;8.226;2022-10-16T16:46:34;20.60;99.90
18894;DHT22;9579;49.488;8.226;2022-10-16T16:49:21;20.60;99.90
18894;DHT22;9579;49.488;8.226;2022-10-16T16:52:10;20.50;99.90
18894;DHT22;9579;49.488;8.226;2022-10-16T16:54:57;20.50;99.90
18894;DHT22;9579;49.488;8.226;2022-10-16T16:57:44;20.40;99.90
18894;DHT22;9579;49.488;8.226;2022-10-16T17:00:31;20.30;99.90
18894;DHT22;9579;49.488;8.226;2022-10-16T17:03:18;20.20;99.90
18894;DHT22;9579;49.488;8.226;2022-10-16T17:06:08;20.10;99.90
18894;DHT22;9579;49.488;8.226;2022-10-16T17:08:58;20.10;99.90
18894;DHT22;9579;49.488;8.226;2022-10-16T17:11:45;20.00;99.90
18894;DHT22;9579;49.488;8.226;2022-10-16T17:14:33;20.00;99.90
18894;DHT22;9579;49.488;8.226;2022-10-16T17:17:21;19.90;99.90
18894;DHT22;9579;49.488;8.226;2022-10-16T17:20:08;20.00;99.90
18894;DHT22;9579;49.488;8.226;2022-10-16T17:22:56;19.80;99.90
18894;DHT22;9579;49.488;8.226;2022-10-16T17:25:45;19.70;99.90
18894;DHT22;9579;49.488;8.226;2022-10-16T17:28:32;19.60;99.90
18894;DHT22;9579;49.488;8.226;2022-10-16T17:31:22;19.60;99.90
18894;DHT22;9579;49.488;8.226;2022-10-16T17:34:10;19.50;99.90
18894;DHT22;9579;49.488;8.226;2022-10-16T17:36:57;19.50;99.90
18894;DHT22;9579;49.488;8.226;2022-10-16T17:39:44;19.40;99.90
18894;DHT22;9579;49.488;8.226;2022-10-16T17:42:33;19.40;99.90
18894;DHT22;9579;49.488;8.226;2022-10-16T17:45:20;19.40;99.90
18894;DHT22;9579;49.488;8.226;2022-10-16T17:48:07;19.30;99.90
18894;DHT22;9579;49.488;8.226;2022-10-16T17:50:54;19.30;99.90
18894;DHT22;9579;49.488;8.226;2022-10-16T17:53:41;19.40;99.90
18894;DHT22;9579;49.488;8.226;2022-10-16T17:56:29;19.30;99.90
18894;DHT22;9579;49.488;8.226;2022-10-16T17:59:18;19.30;99.90
18894;DHT22;9579;49.488;8.226;2022-10-16T18:02:08;19.20;99.90
18894;DHT22;9579;49.488;8.226;2022-10-16T18:04:56;19.10;99.90
18894;DHT22;9579;49.488;8.226;2022-10-16T18:07:43;19.10;99.90
18894;DHT22;9579;49.488;8.226;2022-10-16T18:10:30;19.00;99.90
18894;DHT22;9579;49.488;8.226;2022-10-16T18:13:17;19.10;99.90
18894;DHT22;9579;49.488;8.226;2022-10-16T18:16:07;18.90;99.90
18894;DHT22;9579;49.488;8.226;2022-10-16T18:18:56;18.90;99.90
18894;DHT22;9579;49.488;8.226;2022-10-16T18:22:16;18.90;99.90
18894;DHT22;9579;49.488;8.226;2022-10-16T19:08:41;18.10;99.90
18894;DHT22;9579;49.488;8.226;2022-10-16T19:20:03;18.10;99.90
18894;DHT22;9579;49.488;8.226;2022-10-16T20:19:20;17.90;99.90
18894;DHT22;9579;49.488;8.226;2022-10-16T20:25:52;17.80;99.90
18894;DHT22;9579;49.488;8.226;2022-10-16T20:32:26;17.70;99.90
18894;DHT22;9579;49.488;8.226;2022-10-16T20:54:31;17.50;99.90
18894;DHT22;9579;49.488;8.226;2022-10-16T21:11:32;17.30;99.90
18894;DHT22;9579;49.488;8.226;2022-10-16T21:15:34;17.30;99.90
18894;DHT22;9579;49.488;8.226;2022-10-16T21:21:54;17.30;99.90
18894;DHT22;9579;49.488;8.226;2022-10-16T21:25:16;17.20;99.90
18894;DHT22;9579;49.488;8.226;2022-10-16T21:28:23;17.10;99.90
18894;DHT22;9579;49.488;8.226;2022-10-16T21:31:39;17.10;99.90
18894;DHT22;9579;49.488;8.226;2022-10-16T21:42:30;17.10;99.90
18894;DHT22;9579;49.488;8.226;2022-10-16T21:49:09;17.10;99.90
18894;DHT22;9579;49.488;8.226;2022-10-16T21:55:52;17.00;99.90
18894;DHT22;9579;49.488;8.226;2022-10-16T22:02:49;17.00;99.90
18894;DHT22;9579;49.488;8.226;2022-10-16T22:09:43;16.90;99.90
18894;DHT22;9579;49.488;8.226;2022-10-16T22:12:50;16.90;99.90
18894;DHT22;9579;49.488;8.226;2022-10-16T22:26:27;16.80;99.90
18894;DHT22;9579;49.488;8.226;2022-10-16T22:30:36;16.70;99.90
18894;DHT22;9579;49.488;8.226;2022-10-16T22:33:51;16.70;99.90
18894;DHT22;9579;49.488;8.226;2022-10-16T22:36:50;16.70;99.90
18894;DHT22;9579;49.488;8.226;2022-10-16T22:43:48;16.70;99.90
18894;DHT22;9579;49.488;8.226;2022-10-16T22:46:35;16.70;99.90
18894;DHT22;9579;49.488;8.226;2022-10-16T22:49:53;16.60;99.90
18894;DHT22;9579;49.488;8.226;2022-10-16T22:56:21;16.60;99.90
18894;DHT22;9579;49.488;8.226;2022-10-16T22:59:27;16.60;99.90
